createdAt,value
2017-05-02T00:00:37.290Z,0
2017-05-02T00:01:46.335Z,0
2017-05-02T00:02:55.295Z,0
2017-05-02T00:04:04.507Z,0
2017-05-02T00:05:13.498Z,0
2017-05-02T00:06:22.461Z,0
2017-05-02T00:07:31.416Z,0
2017-05-02T00:08:40.379Z,0
2017-05-02T00:09:49.583Z,0
2017-05-02T00:10:58.539Z,0
2017-05-02T00:12:07.503Z,0
2017-05-02T00:13:16.472Z,0
2017-05-02T00:14:25.766Z,0
2017-05-02T00:15:35.145Z,0
2017-05-02T00:16:44.418Z,0
2017-05-02T00:17:53.465Z,0
2017-05-02T00:19:02.425Z,0
2017-05-02T00:20:11.380Z,0
2017-05-02T00:21:20.589Z,0
2017-05-02T00:22:29.542Z,0
2017-05-02T00:23:38.586Z,0
2017-05-02T00:24:47.542Z,0
2017-05-02T00:25:56.531Z,0
2017-05-02T00:27:05.740Z,0
2017-05-02T00:28:14.695Z,0
2017-05-02T00:29:23.658Z,0
2017-05-02T00:30:32.612Z,0
2017-05-02T00:31:41.569Z,0
2017-05-02T00:32:50.784Z,0
2017-05-02T00:33:59.736Z,0
2017-05-02T00:35:08.685Z,0
2017-05-02T00:36:17.969Z,0
2017-05-02T00:37:27.254Z,0
2017-05-02T00:38:36.461Z,0
2017-05-02T00:39:45.502Z,0
2017-05-02T00:40:54.453Z,0
2017-05-02T00:42:03.409Z,0
2017-05-02T00:43:12.455Z,0
2017-05-02T00:44:21.755Z,0
2017-05-02T00:45:30.707Z,0
2017-05-02T00:46:39.662Z,0
2017-05-02T00:47:48.617Z,0
2017-05-02T00:48:57.569Z,0
2017-05-02T00:50:06.783Z,0
2017-05-02T00:51:15.737Z,0
2017-05-02T00:52:24.695Z,0
2017-05-02T00:53:33.655Z,0
2017-05-02T00:54:42.613Z,0
2017-05-02T00:55:51.820Z,0
2017-05-02T00:57:00.767Z,0
2017-05-02T00:58:09.728Z,0
2017-05-02T00:59:18.694Z,0
2017-05-02T01:00:27.734Z,0
2017-05-02T01:01:37.034Z,0
2017-05-02T01:02:45.996Z,0
2017-05-02T01:03:54.955Z,0
2017-05-02T01:05:03.914Z,0
2017-05-02T01:06:12.870Z,0
2017-05-02T01:07:22.124Z,0
2017-05-02T01:08:31.176Z,0
2017-05-02T01:09:40.136Z,0
2017-05-02T01:10:49.090Z,0
2017-05-02T01:11:58.041Z,0
2017-05-02T01:13:07.248Z,0
2017-05-02T01:14:16.205Z,0
2017-05-02T01:15:25.161Z,0
2017-05-02T01:16:34.112Z,0
2017-05-02T01:17:43.076Z,0
2017-05-02T01:18:52.290Z,0
2017-05-02T01:20:01.254Z,0
2017-05-02T01:21:10.626Z,0
2017-05-02T01:22:19.579Z,0
2017-05-02T01:23:28.628Z,0
2017-05-02T01:24:37.831Z,0
2017-05-02T01:25:46.791Z,0
2017-05-02T01:26:56.072Z,0
2017-05-02T01:28:05.028Z,0
2017-05-02T01:29:14.021Z,0
2017-05-02T01:30:23.226Z,0
2017-05-02T01:31:32.189Z,0
2017-05-02T01:32:41.235Z,0
2017-05-02T01:33:50.198Z,0
2017-05-02T01:34:59.152Z,0
2017-05-02T01:36:08.449Z,0
2017-05-02T01:37:17.405Z,0
2017-05-02T01:38:26.362Z,0
2017-05-02T01:39:35.413Z,0
2017-05-02T01:40:44.454Z,0
2017-05-02T01:41:53.663Z,0
2017-05-02T01:43:02.951Z,0
2017-05-02T01:44:11.942Z,0
2017-05-02T01:45:20.983Z,0
2017-05-02T01:46:30.026Z,0
2017-05-02T01:47:39.233Z,0
2017-05-02T01:48:48.191Z,0
2017-05-02T01:49:57.241Z,0
2017-05-02T01:51:06.209Z,0
2017-05-02T01:52:15.162Z,0
2017-05-02T01:53:24.371Z,0
2017-05-02T01:54:33.327Z,0
2017-05-02T01:55:42.284Z,0
2017-05-02T01:56:51.408Z,0
2017-05-02T01:58:00.364Z,0
2017-05-02T01:59:09.574Z,0
2017-05-02T02:00:18.532Z,0
2017-05-02T02:01:27.483Z,0
2017-05-02T02:02:36.523Z,0
2017-05-02T02:03:45.479Z,0
2017-05-02T02:04:54.770Z,0
2017-05-02T02:06:03.812Z,0
2017-05-02T02:07:12.858Z,0
2017-05-02T02:08:21.813Z,0
2017-05-02T02:09:30.783Z,0
2017-05-02T02:10:40.075Z,0
2017-05-02T02:11:49.032Z,0
2017-05-02T02:12:57.989Z,0
2017-05-02T02:14:06.948Z,0
2017-05-02T02:15:15.903Z,0
2017-05-02T02:16:25.116Z,0
2017-05-02T02:17:34.074Z,0
2017-05-02T02:18:43.029Z,0
2017-05-02T02:19:52.072Z,0
2017-05-02T02:21:01.116Z,0
2017-05-02T02:22:10.329Z,0
2017-05-02T02:23:19.280Z,0
2017-05-02T02:24:28.241Z,0
2017-05-02T02:25:37.193Z,0
2017-05-02T02:26:46.154Z,0
2017-05-02T02:27:55.370Z,0
2017-05-02T02:29:04.413Z,0
2017-05-02T02:30:13.366Z,0
2017-05-02T02:31:22.317Z,0
2017-05-02T02:32:31.270Z,0
2017-05-02T02:33:40.569Z,0
2017-05-02T02:34:49.527Z,0
2017-05-02T02:35:58.481Z,0
2017-05-02T02:37:07.437Z,0
2017-05-02T02:38:16.393Z,0
2017-05-02T02:39:25.593Z,0
2017-05-02T02:40:34.557Z,0
2017-05-02T02:41:43.834Z,0
2017-05-02T02:42:52.792Z,0
2017-05-02T02:44:01.752Z,0
2017-05-02T02:45:11.041Z,0
2017-05-02T02:46:20.082Z,0
2017-05-02T02:47:29.034Z,0
2017-05-02T02:48:37.987Z,0
2017-05-02T02:49:46.945Z,0
2017-05-02T02:50:56.153Z,0
2017-05-02T02:52:05.435Z,0
2017-05-02T02:53:14.393Z,0
2017-05-02T02:54:23.348Z,0
2017-05-02T02:55:32.303Z,0
2017-05-02T02:56:41.515Z,0
2017-05-02T02:57:50.473Z,0
2017-05-02T02:58:59.473Z,0
2017-05-02T03:00:08.431Z,0
2017-05-02T03:01:17.387Z,0
2017-05-02T03:02:26.593Z,0
2017-05-02T03:03:35.553Z,0
2017-05-02T03:04:44.503Z,0
2017-05-02T03:05:53.546Z,0
2017-05-02T03:07:02.496Z,0
2017-05-02T03:08:11.698Z,0
2017-05-02T03:09:21.092Z,0
2017-05-02T03:10:30.043Z,0
2017-05-02T03:11:39.005Z,0
2017-05-02T03:12:47.955Z,0
2017-05-02T03:13:57.158Z,0
2017-05-02T03:15:06.116Z,0
2017-05-02T03:16:15.072Z,0
2017-05-02T03:17:24.115Z,0
2017-05-02T03:18:33.075Z,0
2017-05-02T03:19:42.332Z,0
2017-05-02T03:20:51.285Z,0
2017-05-02T03:22:00.240Z,0
2017-05-02T03:23:09.285Z,0
2017-05-02T03:24:18.242Z,0
2017-05-02T03:25:27.584Z,0
2017-05-02T03:26:36.718Z,0
2017-05-02T03:27:45.676Z,0
2017-05-02T03:28:54.625Z,0
2017-05-02T03:30:03.589Z,0
2017-05-02T03:31:12.851Z,0
2017-05-02T03:32:21.806Z,0
2017-05-02T03:33:30.853Z,0
2017-05-02T03:34:39.892Z,0
2017-05-02T03:35:48.846Z,0
2017-05-02T03:36:58.184Z,0
2017-05-02T03:38:07.225Z,0
2017-05-02T03:39:16.182Z,0
2017-05-02T03:40:25.455Z,0
2017-05-02T03:41:34.403Z,0
2017-05-02T03:42:43.603Z,0
2017-05-02T03:43:52.557Z,0
2017-05-02T03:45:01.600Z,0
2017-05-02T03:46:10.556Z,0
2017-05-02T03:47:19.595Z,0
2017-05-02T03:48:28.852Z,5
2017-05-02T03:49:37.808Z,5
2017-05-02T03:50:46.762Z,5
2017-05-02T03:51:55.716Z,5
2017-05-02T03:53:04.668Z,5
2017-05-02T03:54:14.215Z,5
2017-05-02T03:55:23.174Z,5
2017-05-02T03:56:32.132Z,5
2017-05-02T03:57:41.086Z,5
2017-05-02T03:58:50.048Z,5
2017-05-02T03:59:59.271Z,5
2017-05-02T04:01:08.346Z,5
2017-05-02T04:02:17.300Z,5
2017-05-02T04:03:26.257Z,5
2017-05-02T04:04:35.309Z,5
2017-05-02T04:05:44.566Z,5
2017-05-02T04:06:53.522Z,5
2017-05-02T04:08:02.483Z,5
2017-05-02T04:09:11.525Z,5
2017-05-02T04:10:20.478Z,5
2017-05-02T04:11:29.731Z,5
2017-05-02T04:12:38.691Z,5
2017-05-02T04:13:47.649Z,5
2017-05-02T04:14:56.601Z,10
2017-05-02T04:16:05.558Z,10
2017-05-02T04:17:14.814Z,10
2017-05-02T04:18:23.770Z,10
2017-05-02T04:19:32.728Z,10
2017-05-02T04:20:41.682Z,10
2017-05-02T04:21:50.631Z,10
2017-05-02T04:22:59.841Z,10
2017-05-02T04:24:08.799Z,10
2017-05-02T04:25:17.836Z,10
2017-05-02T04:26:26.787Z,10
2017-05-02T04:27:35.745Z,10
2017-05-02T04:28:44.999Z,10
2017-05-02T04:29:53.949Z,10
2017-05-02T04:31:02.904Z,10
2017-05-02T04:32:11.865Z,10
2017-05-02T04:33:20.912Z,10
2017-05-02T04:34:30.258Z,10
2017-05-02T04:35:39.296Z,10
2017-05-02T04:36:48.250Z,10
2017-05-02T04:37:57.532Z,10
2017-05-02T04:39:06.514Z,10
2017-05-02T04:40:15.778Z,15
2017-05-02T04:41:24.731Z,15
2017-05-02T04:42:33.689Z,15
2017-05-02T04:43:42.647Z,15
2017-05-02T04:44:51.597Z,15
2017-05-02T04:46:00.933Z,20
2017-05-02T04:47:09.966Z,20
2017-05-02T04:48:18.922Z,20
2017-05-02T04:49:27.881Z,20
2017-05-02T04:50:36.925Z,20
2017-05-02T04:51:46.506Z,25
2017-05-02T04:52:55.472Z,25
2017-05-02T04:54:04.426Z,20
2017-05-02T04:55:13.380Z,25
2017-05-02T04:56:22.421Z,25
2017-05-02T04:57:31.681Z,25
2017-05-02T04:58:40.727Z,20
2017-05-02T04:59:49.680Z,20
2017-05-02T05:00:58.725Z,25
2017-05-02T05:02:07.681Z,25
2017-05-02T05:03:17.914Z,25
2017-05-02T05:04:26.960Z,25
2017-05-02T05:05:35.909Z,25
2017-05-02T05:06:44.863Z,25
2017-05-02T05:07:53.821Z,25
2017-05-02T05:09:03.078Z,25
2017-05-02T05:10:12.036Z,25
2017-05-02T05:11:20.986Z,20
2017-05-02T05:12:29.938Z,20
2017-05-02T05:13:38.983Z,20
2017-05-02T05:14:48.238Z,20
2017-05-02T05:15:57.296Z,20
2017-05-02T05:17:06.349Z,20
2017-05-02T05:18:15.316Z,20
2017-05-02T05:19:24.270Z,20
2017-05-02T05:20:33.473Z,20
2017-05-02T05:21:42.433Z,20
2017-05-02T05:22:51.389Z,20
2017-05-02T05:24:00.345Z,20
2017-05-02T05:25:09.294Z,25
2017-05-02T05:26:18.590Z,25
2017-05-02T05:27:27.540Z,25
2017-05-02T05:28:36.497Z,25
2017-05-02T05:29:45.453Z,30
2017-05-02T05:30:54.401Z,30
2017-05-02T05:32:03.649Z,35
2017-05-02T05:33:12.604Z,40
2017-05-02T05:34:21.561Z,45
2017-05-02T05:35:30.515Z,55
2017-05-02T05:36:39.490Z,55
2017-05-02T05:37:48.708Z,60
2017-05-02T05:38:57.664Z,65
2017-05-02T05:40:06.617Z,65
2017-05-02T05:41:15.569Z,65
2017-05-02T05:42:24.523Z,70
2017-05-02T05:43:33.786Z,75
2017-05-02T05:44:42.828Z,75
2017-05-02T05:45:51.779Z,80
2017-05-02T05:47:00.736Z,80
2017-05-02T05:48:09.785Z,85
2017-05-02T05:49:19.049Z,90
2017-05-02T05:50:28.007Z,95
2017-05-02T05:51:36.962Z,100
2017-05-02T05:52:45.915Z,105
2017-05-02T05:53:54.878Z,110
2017-05-02T05:55:04.140Z,115
2017-05-02T05:56:13.096Z,120
2017-05-02T05:57:22.133Z,120
2017-05-02T05:58:31.089Z,120
2017-05-02T05:59:40.039Z,115
2017-05-02T06:00:49.293Z,120
2017-05-02T06:01:58.247Z,120
2017-05-02T06:03:07.208Z,125
2017-05-02T06:04:16.161Z,130
2017-05-02T06:05:25.206Z,140
2017-05-02T06:06:34.473Z,140
2017-05-02T06:07:43.428Z,135
2017-05-02T06:08:52.472Z,135
2017-05-02T06:10:01.523Z,135
2017-05-02T06:11:10.801Z,145
2017-05-02T06:12:20.004Z,145
2017-05-02T06:13:29.050Z,155
2017-05-02T06:14:38.003Z,140
2017-05-02T06:15:46.967Z,140
2017-05-02T06:16:55.923Z,135
2017-05-02T06:18:05.181Z,140
2017-05-02T06:19:14.144Z,140
2017-05-02T06:20:23.093Z,135
2017-05-02T06:21:32.042Z,130
2017-05-02T06:22:40.995Z,125
2017-05-02T06:23:50.258Z,125
2017-05-02T06:24:59.220Z,125
2017-05-02T06:26:08.170Z,135
2017-05-02T06:27:17.445Z,140
2017-05-02T06:28:26.402Z,140
2017-05-02T06:29:35.666Z,135
2017-05-02T06:30:44.961Z,135
2017-05-02T06:31:53.919Z,135
2017-05-02T06:33:02.881Z,135
2017-05-02T06:34:11.843Z,135
2017-05-02T06:35:21.184Z,135
2017-05-02T06:36:30.135Z,130
2017-05-02T06:37:39.091Z,125
2017-05-02T06:38:48.043Z,130
2017-05-02T06:39:56.995Z,130
2017-05-02T06:41:06.256Z,130
2017-05-02T06:42:15.217Z,120
2017-05-02T06:43:24.179Z,115
2017-05-02T06:44:33.132Z,110
2017-05-02T06:45:42.085Z,110
2017-05-02T06:46:51.325Z,110
2017-05-02T06:48:00.280Z,110
2017-05-02T06:49:09.244Z,110
2017-05-02T06:50:18.199Z,115
2017-05-02T06:51:27.147Z,115
2017-05-02T06:52:36.410Z,125
2017-05-02T06:53:45.364Z,125
2017-05-02T06:54:54.327Z,135
2017-05-02T06:56:03.284Z,145
2017-05-02T06:57:12.235Z,140
2017-05-02T06:58:21.493Z,140
2017-05-02T06:59:30.456Z,140
2017-05-02T07:00:39.417Z,135
2017-05-02T07:01:48.369Z,130
2017-05-02T07:02:57.326Z,120
2017-05-02T07:04:06.589Z,110
2017-05-02T07:05:15.551Z,105
2017-05-02T07:06:24.505Z,110
2017-05-02T07:07:33.461Z,105
2017-05-02T07:08:42.504Z,105
2017-05-02T07:09:51.759Z,115
2017-05-02T07:11:00.711Z,120
2017-05-02T07:12:09.675Z,125
2017-05-02T07:13:18.635Z,120
2017-05-02T07:14:27.589Z,120
2017-05-02T07:15:36.882Z,110
2017-05-02T07:16:46.157Z,105
2017-05-02T07:17:55.110Z,100
2017-05-02T07:19:04.102Z,100
2017-05-02T07:20:13.062Z,100
2017-05-02T07:21:22.316Z,95
2017-05-02T07:22:31.271Z,95
2017-05-02T07:23:40.227Z,95
2017-05-02T07:24:49.182Z,95
2017-05-02T07:25:58.133Z,95
2017-05-02T07:27:07.388Z,95
2017-05-02T07:28:16.350Z,95
2017-05-02T07:29:25.301Z,95
2017-05-02T07:30:34.258Z,95
2017-05-02T07:31:43.212Z,100
2017-05-02T07:32:52.472Z,100
2017-05-02T07:34:01.439Z,105
2017-05-02T07:35:10.390Z,105
2017-05-02T07:36:19.347Z,105
2017-05-02T07:37:28.302Z,105
2017-05-02T07:38:37.558Z,95
2017-05-02T07:39:46.519Z,90
2017-05-02T07:40:55.472Z,85
2017-05-02T07:42:04.424Z,80
2017-05-02T07:43:13.380Z,80
2017-05-02T07:44:22.593Z,85
2017-05-02T07:45:31.546Z,85
2017-05-02T07:46:40.497Z,75
2017-05-02T07:47:49.452Z,75
2017-05-02T07:48:58.413Z,75
2017-05-02T07:50:07.670Z,75
2017-05-02T07:51:16.624Z,75
2017-05-02T07:52:25.586Z,75
2017-05-02T07:53:34.547Z,80
2017-05-02T07:54:43.584Z,80
2017-05-02T07:55:52.833Z,85
2017-05-02T07:57:01.785Z,85
2017-05-02T07:58:11.083Z,90
2017-05-02T07:59:20.039Z,85
2017-05-02T08:00:28.988Z,90
2017-05-02T08:01:38.329Z,95
2017-05-02T08:02:47.610Z,100
2017-05-02T08:03:56.569Z,100
2017-05-02T08:05:05.535Z,105
2017-05-02T08:06:14.871Z,100
2017-05-02T08:07:24.124Z,95
2017-05-02T08:08:33.076Z,95
2017-05-02T08:09:42.026Z,95
2017-05-02T08:10:50.978Z,85
2017-05-02T08:11:59.935Z,75
2017-05-02T08:13:09.190Z,80
2017-05-02T08:14:18.145Z,75
2017-05-02T08:15:27.104Z,75
2017-05-02T08:16:36.061Z,75
2017-05-02T08:17:45.355Z,80
2017-05-02T08:18:54.559Z,75
2017-05-02T08:20:03.830Z,75
2017-05-02T08:21:12.960Z,75
2017-05-02T08:22:21.921Z,80
2017-05-02T08:23:30.880Z,85
2017-05-02T08:24:40.133Z,85
2017-05-02T08:25:49.087Z,85
2017-05-02T08:26:58.043Z,80
2017-05-02T08:28:06.995Z,80
2017-05-02T08:29:15.949Z,95
2017-05-02T08:30:25.204Z,95
2017-05-02T08:31:34.163Z,90
2017-05-02T08:32:43.134Z,85
2017-05-02T08:33:52.091Z,90
2017-05-02T08:35:01.057Z,90
2017-05-02T08:36:10.424Z,80
2017-05-02T08:37:19.383Z,85
2017-05-02T08:38:28.343Z,90
2017-05-02T08:39:37.393Z,95
2017-05-02T08:40:46.356Z,85
2017-05-02T08:41:55.615Z,85
2017-05-02T08:43:04.571Z,80
2017-05-02T08:44:13.541Z,80
2017-05-02T08:45:22.492Z,80
2017-05-02T08:46:31.450Z,80
2017-05-02T08:47:40.711Z,80
2017-05-02T08:48:49.669Z,80
2017-05-02T08:49:58.627Z,75
2017-05-02T08:51:07.583Z,75
2017-05-02T08:52:16.545Z,80
2017-05-02T08:53:25.811Z,80
2017-05-02T08:54:34.764Z,80
2017-05-02T08:55:43.714Z,85
2017-05-02T08:56:52.666Z,80
2017-05-02T08:58:01.706Z,80
2017-05-02T08:59:11.010Z,80
2017-05-02T09:00:19.971Z,80
2017-05-02T09:01:28.927Z,80
2017-05-02T09:02:37.881Z,80
2017-05-02T09:03:46.844Z,80
2017-05-02T09:04:56.191Z,85
2017-05-02T09:06:05.153Z,85
2017-05-02T09:07:14.109Z,75
2017-05-02T09:08:23.392Z,75
2017-05-02T09:09:32.346Z,65
2017-05-02T09:10:41.602Z,65
2017-05-02T09:11:50.558Z,75
2017-05-02T09:12:59.599Z,80
2017-05-02T09:14:08.892Z,70
2017-05-02T09:15:17.847Z,65
2017-05-02T09:16:27.102Z,70
2017-05-02T09:17:36.064Z,65
2017-05-02T09:18:45.028Z,70
2017-05-02T09:19:53.981Z,70
2017-05-02T09:21:02.931Z,75
2017-05-02T09:22:12.141Z,80
2017-05-02T09:23:21.097Z,70
2017-05-02T09:24:30.061Z,70
2017-05-02T09:25:39.017Z,70
2017-05-02T09:26:47.973Z,75
2017-05-02T09:27:57.180Z,85
2017-05-02T09:29:06.220Z,80
2017-05-02T09:30:15.173Z,75
2017-05-02T09:31:24.134Z,75
2017-05-02T09:32:33.090Z,85
2017-05-02T09:33:42.679Z,85
2017-05-02T09:34:51.962Z,70
2017-05-02T09:36:01.008Z,75
2017-05-02T09:37:09.963Z,65
2017-05-02T09:38:18.917Z,70
2017-05-02T09:39:28.178Z,75
2017-05-02T09:40:37.145Z,70
2017-05-02T09:41:46.101Z,70
2017-05-02T09:42:55.142Z,75
2017-05-02T09:44:04.098Z,75
2017-05-02T09:45:13.303Z,75
2017-05-02T09:46:22.264Z,70
2017-05-02T09:47:31.225Z,65
2017-05-02T09:48:40.184Z,75
2017-05-02T09:49:49.229Z,80
2017-05-02T09:50:58.483Z,85
2017-05-02T09:52:07.440Z,85
2017-05-02T09:53:16.411Z,80
2017-05-02T09:54:25.372Z,80
2017-05-02T09:55:34.331Z,85
2017-05-02T09:56:43.675Z,85
2017-05-02T09:57:52.723Z,70
2017-05-02T09:59:01.693Z,70
2017-05-02T10:00:10.653Z,65
2017-05-02T10:01:19.611Z,65
2017-05-02T10:02:28.870Z,70
2017-05-02T10:03:37.824Z,70
2017-05-02T10:04:46.779Z,75
2017-05-02T10:05:55.820Z,70
2017-05-02T10:07:04.876Z,80
2017-05-02T10:08:14.136Z,80
2017-05-02T10:09:23.092Z,70
2017-05-02T10:10:32.048Z,65
2017-05-02T10:11:41.331Z,65
2017-05-02T10:12:50.291Z,65
2017-05-02T10:13:59.548Z,60
2017-05-02T10:15:08.824Z,50
2017-05-02T10:16:17.784Z,55
2017-05-02T10:17:26.745Z,55
2017-05-02T10:18:35.702Z,55
2017-05-02T10:19:44.708Z,75
2017-05-02T10:20:53.662Z,75
2017-05-02T10:22:02.618Z,70
2017-05-02T10:23:11.578Z,70
2017-05-02T10:24:20.539Z,80
2017-05-02T10:25:29.499Z,80
2017-05-02T10:26:38.780Z,70
2017-05-02T10:27:47.734Z,65
2017-05-02T10:28:56.688Z,75
2017-05-02T10:30:05.648Z,80
2017-05-02T10:31:14.659Z,75
2017-05-02T10:32:23.792Z,75
2017-05-02T10:33:32.753Z,75
2017-05-02T10:34:41.717Z,70
2017-05-02T10:35:50.758Z,70
2017-05-02T10:36:59.761Z,70
2017-05-02T10:38:08.719Z,70
2017-05-02T10:39:17.674Z,80
2017-05-02T10:40:26.636Z,80
2017-05-02T10:41:35.592Z,75
2017-05-02T10:42:45.277Z,70
2017-05-02T10:43:54.320Z,70
2017-05-02T10:45:03.272Z,80
2017-05-02T10:46:12.232Z,80
2017-05-02T10:47:21.189Z,75
2017-05-02T10:48:30.146Z,90
2017-05-02T10:49:39.102Z,95
2017-05-02T10:50:48.064Z,95
2017-05-02T10:51:57.020Z,95
2017-05-02T10:53:05.987Z,110
2017-05-02T10:54:14.992Z,110
2017-05-02T10:55:23.942Z,100
2017-05-02T10:56:32.905Z,95
2017-05-02T10:57:41.864Z,90
2017-05-02T10:58:50.820Z,80
2017-05-02T10:59:59.785Z,85
2017-05-02T11:01:08.821Z,85
2017-05-02T11:02:17.773Z,100
2017-05-02T11:03:26.735Z,100
2017-05-02T11:04:35.700Z,125
2017-05-02T11:05:44.657Z,135
2017-05-02T11:06:53.951Z,125
2017-05-02T11:08:02.997Z,135
2017-05-02T11:09:11.945Z,120
2017-05-02T11:10:20.903Z,90
2017-05-02T11:11:29.949Z,85
2017-05-02T11:12:38.907Z,75
2017-05-02T11:13:47.866Z,75
2017-05-02T11:14:56.819Z,80
2017-05-02T11:16:05.776Z,70
2017-05-02T11:17:14.824Z,60
2017-05-02T11:18:23.811Z,55
2017-05-02T11:19:32.772Z,50
2017-05-02T11:20:42.050Z,50
2017-05-02T11:21:51.006Z,45
2017-05-02T11:23:00.335Z,45
2017-05-02T11:24:09.293Z,45
2017-05-02T11:25:18.343Z,45
2017-05-02T11:26:27.295Z,45
2017-05-02T11:27:36.254Z,45
2017-05-02T11:28:45.220Z,45
2017-05-02T11:29:54.173Z,35
2017-05-02T11:31:03.124Z,35
2017-05-02T11:32:12.080Z,35
2017-05-02T11:33:21.041Z,40
2017-05-02T11:34:30.003Z,45
2017-05-02T11:35:38.958Z,50
2017-05-02T11:36:47.915Z,50
2017-05-02T11:37:56.873Z,40
2017-05-02T11:39:05.914Z,40
2017-05-02T11:40:14.867Z,45
2017-05-02T11:41:23.821Z,55
2017-05-02T11:42:32.775Z,55
2017-05-02T11:43:42.058Z,50
2017-05-02T11:44:51.016Z,45
2017-05-02T11:46:00.022Z,45
2017-05-02T11:47:08.982Z,40
2017-05-02T11:48:17.940Z,45
2017-05-02T11:49:26.902Z,50
2017-05-02T11:50:35.946Z,45
2017-05-02T11:51:44.947Z,45
2017-05-02T11:52:53.990Z,50
2017-05-02T11:54:02.947Z,55
2017-05-02T11:55:11.902Z,60
2017-05-02T11:56:20.855Z,55
2017-05-02T11:57:29.857Z,65
2017-05-02T11:58:38.907Z,65
2017-05-02T11:59:47.867Z,65
2017-05-02T12:00:56.906Z,65
2017-05-02T12:02:05.945Z,65
2017-05-02T12:03:14.953Z,65
2017-05-02T12:04:23.910Z,65
2017-05-02T12:05:32.864Z,60
2017-05-02T12:06:41.820Z,60
2017-05-02T12:07:50.780Z,60
2017-05-02T12:09:00.130Z,60
2017-05-02T12:10:09.414Z,70
2017-05-02T12:11:18.365Z,60
2017-05-02T12:12:27.319Z,55
2017-05-02T12:13:36.367Z,65
2017-05-02T12:14:45.621Z,60
2017-05-02T12:15:54.658Z,60
2017-05-02T12:17:03.608Z,65
2017-05-02T12:18:12.559Z,70
2017-05-02T12:19:21.528Z,75
2017-05-02T12:20:30.783Z,80
2017-05-02T12:21:39.825Z,80
2017-05-02T12:22:48.774Z,75
2017-05-02T12:23:58.064Z,65
2017-05-02T12:25:07.109Z,65
2017-05-02T12:26:16.315Z,65
2017-05-02T12:27:25.297Z,55
2017-05-02T12:28:34.251Z,45
2017-05-02T12:29:43.198Z,50
2017-05-02T12:30:52.241Z,70
2017-05-02T12:32:01.503Z,80
2017-05-02T12:33:10.546Z,85
2017-05-02T12:34:19.546Z,95
2017-05-02T12:35:28.502Z,100
2017-05-02T12:36:37.454Z,95
2017-05-02T12:37:46.807Z,90
2017-05-02T12:38:55.764Z,80
2017-05-02T12:40:04.722Z,70
2017-05-02T12:41:13.674Z,70
2017-05-02T12:42:22.714Z,65
2017-05-02T12:43:31.978Z,80
2017-05-02T12:44:41.015Z,75
2017-05-02T12:45:49.961Z,70
2017-05-02T12:46:58.917Z,75
2017-05-02T12:48:07.876Z,75
2017-05-02T12:49:17.132Z,70
2017-05-02T12:50:26.087Z,75
2017-05-02T12:51:35.039Z,75
2017-05-02T12:52:44.076Z,65
2017-05-02T12:53:53.027Z,60
2017-05-02T12:57:02.269Z,70
2017-05-02T12:58:11.224Z,65
2017-05-02T12:59:20.222Z,65
2017-05-02T13:00:29.476Z,60
2017-05-02T13:01:38.429Z,50
2017-05-02T13:02:47.466Z,50
2017-05-02T13:03:56.445Z,50
2017-05-02T13:05:05.398Z,50
2017-05-02T13:06:14.649Z,50
2017-05-02T13:07:23.619Z,45
2017-05-02T13:08:32.574Z,45
2017-05-02T13:09:41.525Z,50
2017-05-02T13:10:50.479Z,50
2017-05-02T13:11:59.816Z,50
2017-05-02T13:13:08.771Z,55
2017-05-02T13:14:17.823Z,55
2017-05-02T13:15:26.781Z,55
2017-05-02T13:16:35.864Z,55
2017-05-02T13:17:45.073Z,60
2017-05-02T13:18:54.024Z,60
2017-05-02T13:20:03.067Z,55
2017-05-02T13:21:12.030Z,55
2017-05-02T13:22:21.072Z,55
2017-05-02T13:23:30.280Z,50
2017-05-02T13:24:39.232Z,55
2017-05-02T13:25:48.276Z,60
2017-05-02T13:26:57.228Z,55
2017-05-02T13:28:06.185Z,50
2017-05-02T13:29:15.445Z,45
2017-05-02T13:30:24.396Z,45
2017-05-02T13:31:33.346Z,45
2017-05-02T13:32:42.302Z,50
2017-05-02T13:33:51.593Z,60
2017-05-02T13:35:00.935Z,65
2017-05-02T13:36:09.979Z,50
2017-05-02T13:37:18.925Z,45
2017-05-02T13:38:27.882Z,45
2017-05-02T13:39:36.835Z,50
2017-05-02T13:40:46.084Z,50
2017-05-02T13:41:55.114Z,55
2017-05-02T13:43:04.164Z,60
2017-05-02T13:44:13.121Z,55
2017-05-02T13:45:22.077Z,50
2017-05-02T13:46:31.325Z,50
2017-05-02T13:47:40.378Z,60
2017-05-02T13:48:49.336Z,65
2017-05-02T13:49:58.294Z,60
2017-05-02T13:51:07.419Z,55
2017-05-02T13:52:16.671Z,55
2017-05-02T13:53:25.627Z,60
2017-05-02T13:54:34.585Z,60
2017-05-02T13:55:43.539Z,60
2017-05-02T13:56:52.528Z,60
2017-05-02T13:58:01.781Z,55
2017-05-02T13:59:10.735Z,55
2017-05-02T14:00:19.685Z,60
2017-05-02T14:01:28.966Z,60
2017-05-02T14:02:37.919Z,70
2017-05-02T14:03:47.172Z,65
2017-05-02T14:04:56.125Z,55
2017-05-02T14:06:05.172Z,50
2017-05-02T14:07:14.134Z,50
2017-05-02T14:08:23.089Z,50
2017-05-02T14:09:32.350Z,55
2017-05-02T14:10:41.298Z,50
2017-05-02T14:11:50.372Z,50
2017-05-02T14:12:59.332Z,45
2017-05-02T14:14:08.286Z,45
2017-05-02T14:15:17.545Z,50
2017-05-02T14:16:26.497Z,45
2017-05-02T14:17:35.443Z,45
2017-05-02T14:18:44.400Z,40
2017-05-02T14:19:53.358Z,35
2017-05-02T14:21:02.617Z,35
2017-05-02T14:22:11.565Z,30
2017-05-02T14:23:20.929Z,30
2017-05-02T14:24:30.219Z,30
2017-05-02T14:25:39.196Z,35
2017-05-02T14:26:48.484Z,35
2017-05-02T14:27:57.445Z,45
2017-05-02T14:29:06.490Z,40
2017-05-02T14:30:15.444Z,40
2017-05-02T14:31:24.397Z,40
2017-05-02T14:32:33.655Z,45
2017-05-02T14:33:42.937Z,50
2017-05-02T14:34:52.810Z,50
2017-05-02T14:36:01.835Z,50
2017-05-02T14:37:10.798Z,45
2017-05-02T14:38:20.053Z,40
2017-05-02T14:39:29.013Z,35
2017-05-02T14:40:38.367Z,40
2017-05-02T14:41:47.321Z,40
2017-05-02T14:42:56.280Z,35
2017-05-02T14:44:05.622Z,35
2017-05-02T14:45:14.572Z,40
2017-05-02T14:46:23.520Z,40
2017-05-02T14:47:32.799Z,40
2017-05-02T14:48:41.760Z,50
2017-05-02T14:49:51.016Z,55
2017-05-02T14:50:59.970Z,40
2017-05-02T14:52:08.917Z,35
2017-05-02T14:53:17.871Z,45
2017-05-02T14:54:27.153Z,35
2017-05-02T14:55:36.362Z,35
2017-05-02T14:56:45.352Z,40
2017-05-02T14:57:54.314Z,40
2017-05-02T14:59:03.278Z,35
2017-05-02T15:00:12.319Z,35
2017-05-02T15:01:21.746Z,35
2017-05-02T15:02:30.698Z,40
2017-05-02T15:03:39.652Z,45
2017-05-02T15:04:48.697Z,40
2017-05-02T15:05:57.728Z,40
2017-05-02T15:07:07.313Z,40
2017-05-02T15:08:16.275Z,40
2017-05-02T15:09:25.240Z,45
2017-05-02T15:10:34.189Z,45
2017-05-02T15:11:43.138Z,45
2017-05-02T15:12:52.407Z,50
2017-05-02T15:14:01.358Z,50
2017-05-02T15:15:10.306Z,55
2017-05-02T15:16:19.577Z,45
2017-05-02T15:17:28.526Z,40
2017-05-02T15:18:37.782Z,35
2017-05-02T15:19:46.731Z,35
2017-05-02T15:20:55.689Z,35
2017-05-02T15:22:04.641Z,40
2017-05-02T15:23:13.602Z,40
2017-05-02T15:24:22.810Z,40
2017-05-02T15:25:31.761Z,40
2017-05-02T15:26:40.712Z,45
2017-05-02T15:27:49.661Z,50
2017-05-02T15:28:58.616Z,50
2017-05-02T15:30:07.818Z,60
2017-05-02T15:31:16.769Z,75
2017-05-02T15:32:25.726Z,145
2017-05-02T15:33:34.684Z,140
2017-05-02T15:34:43.633Z,135
2017-05-02T15:35:52.836Z,125
2017-05-02T15:37:02.110Z,125
2017-05-02T15:38:11.062Z,110
2017-05-02T15:39:20.017Z,95
2017-05-02T15:40:28.976Z,85
2017-05-02T15:41:38.238Z,105
2017-05-02T15:42:47.189Z,135
2017-05-02T15:43:56.144Z,115
2017-05-02T15:45:05.099Z,110
2017-05-02T15:46:14.063Z,130
2017-05-02T15:47:23.442Z,110
2017-05-02T15:48:32.394Z,125
2017-05-02T15:49:41.348Z,120
2017-05-02T15:50:50.303Z,110
2017-05-02T15:51:59.258Z,90
2017-05-02T15:53:08.519Z,95
2017-05-02T15:54:17.469Z,90
2017-05-02T15:55:26.755Z,85
2017-05-02T15:56:35.798Z,80
2017-05-02T15:57:44.752Z,110
2017-05-02T15:58:54.009Z,95
2017-05-02T16:00:02.975Z,80
2017-05-02T16:01:11.928Z,90
2017-05-02T16:02:20.968Z,80
2017-05-02T16:03:29.924Z,75
2017-05-02T16:04:39.183Z,75
2017-05-02T16:05:48.220Z,70
2017-05-02T16:06:57.174Z,80
2017-05-02T16:08:06.128Z,85
2017-05-02T16:09:15.084Z,80
2017-05-02T16:10:24.339Z,65
2017-05-02T16:11:33.293Z,80
2017-05-02T16:12:42.251Z,70
2017-05-02T16:13:51.221Z,75
2017-05-02T16:15:00.175Z,75
2017-05-02T16:16:09.464Z,70
2017-05-02T16:17:18.416Z,70
2017-05-02T16:18:27.374Z,70
2017-05-02T16:19:36.330Z,70
2017-05-02T16:20:45.280Z,65
2017-05-02T16:21:54.538Z,65
2017-05-02T16:23:03.493Z,55
2017-05-02T16:24:12.451Z,60
2017-05-02T16:25:21.724Z,60
2017-05-02T16:26:30.674Z,45
2017-05-02T16:27:39.931Z,50
2017-05-02T16:28:49.215Z,45
2017-05-02T16:29:58.173Z,45
2017-05-02T16:31:07.127Z,45